sensor_id;sensor_type;location;lat;lon;timestamp;P1;durP1;ratioP1;P2;durP2;ratioP2
31652;SDS011;18261;53.648;9.910;2022-11-27T00:00:59;70.88;;;23.40;;
31652;SDS011;18261;53.648;9.910;2022-11-27T00:03:25;59.75;;;21.75;;
31652;SDS011;18261;53.648;9.910;2022-11-27T00:05:52;65.88;;;21.98;;
31652;SDS011;18261;53.648;9.910;2022-11-27T00:08:18;68.10;;;21.88;;
31652;SDS011;18261;53.648;9.910;2022-11-27T00:10:44;64.00;;;20.98;;
31652;SDS011;18261;53.648;9.910;2022-11-27T00:13:10;55.05;;;20.13;;
31652;SDS011;18261;53.648;9.910;2022-11-27T00:15:36;62.00;;;21.17;;
31652;SDS011;18261;53.648;9.910;2022-11-27T00:18:02;59.03;;;21.13;;
31652;SDS011;18261;53.648;9.910;2022-11-27T00:20:28;63.83;;;19.42;;
31652;SDS011;18261;53.648;9.910;2022-11-27T00:22:54;56.78;;;19.40;;
31652;SDS011;18261;53.648;9.910;2022-11-27T00:25:20;60.72;;;18.60;;
31652;SDS011;18261;53.648;9.910;2022-11-27T00:27:46;65.43;;;19.88;;
31652;SDS011;18261;53.648;9.910;2022-11-27T00:30:12;51.65;;;17.98;;
31652;SDS011;18261;53.648;9.910;2022-11-27T00:32:39;59.50;;;18.92;;
31652;SDS011;18261;53.648;9.910;2022-11-27T00:35:05;53.05;;;17.58;;
31652;SDS011;18261;53.648;9.910;2022-11-27T00:37:31;60.90;;;18.58;;
31652;SDS011;18261;53.648;9.910;2022-11-27T00:39:57;49.75;;;17.00;;
31652;SDS011;18261;53.648;9.910;2022-11-27T00:42:23;55.22;;;19.25;;
31652;SDS011;18261;53.648;9.910;2022-11-27T00:44:49;64.38;;;18.70;;
31652;SDS011;18261;53.648;9.910;2022-11-27T00:47:15;44.80;;;17.38;;
31652;SDS011;18261;53.648;9.910;2022-11-27T00:49:41;46.15;;;17.70;;
31652;SDS011;18261;53.648;9.910;2022-11-27T00:52:07;46.35;;;16.27;;
31652;SDS011;18261;53.648;9.910;2022-11-27T00:54:33;46.65;;;17.08;;
31652;SDS011;18261;53.648;9.910;2022-11-27T00:56:59;57.25;;;16.85;;
31652;SDS011;18261;53.648;9.910;2022-11-27T00:59:25;51.00;;;16.88;;
31652;SDS011;18261;53.648;9.910;2022-11-27T01:01:51;47.08;;;16.83;;
31652;SDS011;18261;53.648;9.910;2022-11-27T01:04:17;47.30;;;16.60;;
31652;SDS011;18261;53.648;9.910;2022-11-27T01:06:43;46.03;;;16.10;;
31652;SDS011;18261;53.648;9.910;2022-11-27T01:09:10;55.00;;;16.80;;
31652;SDS011;18261;53.648;9.910;2022-11-27T01:11:37;53.58;;;17.05;;
31652;SDS011;18261;53.648;9.910;2022-11-27T01:14:04;57.85;;;16.58;;
31652;SDS011;18261;53.648;9.910;2022-11-27T01:16:31;51.17;;;16.48;;
31652;SDS011;18261;53.648;9.910;2022-11-27T01:18:57;54.17;;;15.85;;
31652;SDS011;18261;53.648;9.910;2022-11-27T01:21:25;50.75;;;15.30;;
31652;SDS011;18261;53.648;9.910;2022-11-27T01:23:52;45.53;;;14.40;;
31652;SDS011;18261;53.648;9.910;2022-11-27T01:26:18;46.25;;;13.95;;
31652;SDS011;18261;53.648;9.910;2022-11-27T01:28:45;44.47;;;13.65;;
31652;SDS011;18261;53.648;9.910;2022-11-27T01:31:14;53.28;;;13.77;;
31652;SDS011;18261;53.648;9.910;2022-11-27T01:33:41;43.15;;;13.18;;
31652;SDS011;18261;53.648;9.910;2022-11-27T01:36:07;62.65;;;14.30;;
31652;SDS011;18261;53.648;9.910;2022-11-27T01:38:33;53.05;;;12.98;;
31652;SDS011;18261;53.648;9.910;2022-11-27T01:41:03;53.67;;;13.30;;
31652;SDS011;18261;53.648;9.910;2022-11-27T01:46:03;47.33;;;13.85;;
31652;SDS011;18261;53.648;9.910;2022-11-27T01:48:29;44.58;;;13.10;;
31652;SDS011;18261;53.648;9.910;2022-11-27T01:50:55;41.38;;;11.75;;
31652;SDS011;18261;53.648;9.910;2022-11-27T01:53:22;40.97;;;12.02;;
31652;SDS011;18261;53.648;9.910;2022-11-27T01:55:49;36.10;;;11.88;;
31652;SDS011;18261;53.648;9.910;2022-11-27T01:58:23;41.88;;;12.70;;
31652;SDS011;18261;53.648;9.910;2022-11-27T02:00:50;46.88;;;12.07;;
31652;SDS011;18261;53.648;9.910;2022-11-27T02:03:16;48.78;;;12.40;;
31652;SDS011;18261;53.648;9.910;2022-11-27T02:05:42;47.67;;;11.63;;
31652;SDS011;18261;53.648;9.910;2022-11-27T02:08:08;53.67;;;11.88;;
31652;SDS011;18261;53.648;9.910;2022-11-27T02:10:42;50.75;;;11.40;;
31652;SDS011;18261;53.648;9.910;2022-11-27T02:13:12;41.78;;;11.23;;
31652;SDS011;18261;53.648;9.910;2022-11-27T02:15:42;48.50;;;11.50;;
31652;SDS011;18261;53.648;9.910;2022-11-27T02:20:39;39.13;;;10.90;;
31652;SDS011;18261;53.648;9.910;2022-11-27T02:25:49;44.90;;;10.95;;
31652;SDS011;18261;53.648;9.910;2022-11-27T02:28:26;32.33;;;10.82;;
31652;SDS011;18261;53.648;9.910;2022-11-27T02:30:59;29.05;;;10.70;;
31652;SDS011;18261;53.648;9.910;2022-11-27T02:33:27;38.15;;;12.07;;
31652;SDS011;18261;53.648;9.910;2022-11-27T02:36:04;30.73;;;10.60;;
31652;SDS011;18261;53.648;9.910;2022-11-27T02:38:34;36.00;;;10.20;;
31652;SDS011;18261;53.648;9.910;2022-11-27T02:41:13;38.72;;;11.10;;
31652;SDS011;18261;53.648;9.910;2022-11-27T02:43:44;29.65;;;10.52;;
31652;SDS011;18261;53.648;9.910;2022-11-27T02:46:10;40.60;;;12.20;;
31652;SDS011;18261;53.648;9.910;2022-11-27T02:48:39;28.75;;;10.70;;
31652;SDS011;18261;53.648;9.910;2022-11-27T02:51:07;29.25;;;10.90;;
31652;SDS011;18261;53.648;9.910;2022-11-27T02:53:36;38.72;;;12.25;;
31652;SDS011;18261;53.648;9.910;2022-11-27T02:56:04;33.65;;;12.77;;
31652;SDS011;18261;53.648;9.910;2022-11-27T02:58:30;39.28;;;11.32;;
31652;SDS011;18261;53.648;9.910;2022-11-27T03:00:57;34.25;;;11.13;;
31652;SDS011;18261;53.648;9.910;2022-11-27T03:03:25;28.13;;;11.07;;
31652;SDS011;18261;53.648;9.910;2022-11-27T03:05:53;34.33;;;12.45;;
31652;SDS011;18261;53.648;9.910;2022-11-27T03:08:25;28.98;;;11.52;;
31652;SDS011;18261;53.648;9.910;2022-11-27T03:10:56;41.08;;;13.38;;
31652;SDS011;18261;53.648;9.910;2022-11-27T03:13:23;38.55;;;13.85;;
31652;SDS011;18261;53.648;9.910;2022-11-27T03:21:03;36.75;;;13.07;;
31652;SDS011;18261;53.648;9.910;2022-11-27T03:23:31;36.30;;;13.43;;
31652;SDS011;18261;53.648;9.910;2022-11-27T03:25:57;39.90;;;12.35;;
31652;SDS011;18261;53.648;9.910;2022-11-27T03:28:23;42.47;;;15.07;;
31652;SDS011;18261;53.648;9.910;2022-11-27T03:30:49;34.55;;;13.55;;
31652;SDS011;18261;53.648;9.910;2022-11-27T03:33:15;45.17;;;13.75;;
31652;SDS011;18261;53.648;9.910;2022-11-27T03:35:42;34.05;;;13.73;;
31652;SDS011;18261;53.648;9.910;2022-11-27T03:38:08;43.75;;;14.75;;
31652;SDS011;18261;53.648;9.910;2022-11-27T03:40:43;46.78;;;14.57;;
31652;SDS011;18261;53.648;9.910;2022-11-27T03:43:13;43.45;;;13.63;;
31652;SDS011;18261;53.648;9.910;2022-11-27T03:50:50;35.53;;;13.57;;
31652;SDS011;18261;53.648;9.910;2022-11-27T03:53:35;41.97;;;13.73;;
31652;SDS011;18261;53.648;9.910;2022-11-27T03:58:32;39.70;;;13.55;;
31652;SDS011;18261;53.648;9.910;2022-11-27T04:00:58;45.30;;;13.45;;
31652;SDS011;18261;53.648;9.910;2022-11-27T04:03:26;37.83;;;12.65;;
31652;SDS011;18261;53.648;9.910;2022-11-27T04:05:52;36.35;;;12.85;;
31652;SDS011;18261;53.648;9.910;2022-11-27T04:08:18;37.15;;;12.48;;
31652;SDS011;18261;53.648;9.910;2022-11-27T04:10:44;49.75;;;15.02;;
31652;SDS011;18261;53.648;9.910;2022-11-27T04:13:10;47.13;;;13.73;;
31652;SDS011;18261;53.648;9.910;2022-11-27T04:15:36;48.88;;;14.27;;
31652;SDS011;18261;53.648;9.910;2022-11-27T04:18:02;38.13;;;14.70;;
31652;SDS011;18261;53.648;9.910;2022-11-27T04:20:28;43.33;;;14.55;;
31652;SDS011;18261;53.648;9.910;2022-11-27T04:22:54;42.38;;;14.70;;
31652;SDS011;18261;53.648;9.910;2022-11-27T04:25:20;43.33;;;15.18;;
31652;SDS011;18261;53.648;9.910;2022-11-27T04:27:46;43.95;;;14.60;;
31652;SDS011;18261;53.648;9.910;2022-11-27T04:30:12;42.20;;;14.63;;
31652;SDS011;18261;53.648;9.910;2022-11-27T04:32:38;41.47;;;14.98;;
31652;SDS011;18261;53.648;9.910;2022-11-27T04:35:04;41.85;;;14.57;;
31652;SDS011;18261;53.648;9.910;2022-11-27T04:37:30;47.78;;;15.75;;
31652;SDS011;18261;53.648;9.910;2022-11-27T04:39:56;48.97;;;15.82;;
31652;SDS011;18261;53.648;9.910;2022-11-27T04:42:22;47.42;;;15.40;;
31652;SDS011;18261;53.648;9.910;2022-11-27T04:44:48;41.13;;;15.50;;
31652;SDS011;18261;53.648;9.910;2022-11-27T04:47:14;37.03;;;14.60;;
31652;SDS011;18261;53.648;9.910;2022-11-27T04:49:40;44.90;;;15.52;;
31652;SDS011;18261;53.648;9.910;2022-11-27T04:52:06;48.38;;;16.05;;
31652;SDS011;18261;53.648;9.910;2022-11-27T04:54:32;49.90;;;16.60;;
31652;SDS011;18261;53.648;9.910;2022-11-27T04:56:58;54.50;;;17.00;;
31652;SDS011;18261;53.648;9.910;2022-11-27T04:59:24;47.00;;;16.88;;
31652;SDS011;18261;53.648;9.910;2022-11-27T05:01:50;54.72;;;16.48;;
31652;SDS011;18261;53.648;9.910;2022-11-27T05:04:16;63.33;;;17.67;;
31652;SDS011;18261;53.648;9.910;2022-11-27T05:06:42;47.33;;;17.20;;
31652;SDS011;18261;53.648;9.910;2022-11-27T05:09:08;44.97;;;17.88;;
31652;SDS011;18261;53.648;9.910;2022-11-27T05:11:34;46.25;;;19.83;;
31652;SDS011;18261;53.648;9.910;2022-11-27T05:14:00;58.75;;;21.02;;
31652;SDS011;18261;53.648;9.910;2022-11-27T05:16:47;71.00;;;23.27;;
31652;SDS011;18261;53.648;9.910;2022-11-27T05:19:13;53.83;;;23.13;;
31652;SDS011;18261;53.648;9.910;2022-11-27T05:21:40;68.03;;;25.63;;
31652;SDS011;18261;53.648;9.910;2022-11-27T05:24:06;70.38;;;26.55;;
31652;SDS011;18261;53.648;9.910;2022-11-27T05:26:32;76.30;;;28.63;;
31652;SDS011;18261;53.648;9.910;2022-11-27T05:28:58;58.83;;;26.98;;
31652;SDS011;18261;53.648;9.910;2022-11-27T05:31:24;63.17;;;27.35;;
31652;SDS011;18261;53.648;9.910;2022-11-27T05:33:50;78.30;;;29.73;;
31652;SDS011;18261;53.648;9.910;2022-11-27T05:36:16;75.55;;;29.25;;
31652;SDS011;18261;53.648;9.910;2022-11-27T05:38:42;61.42;;;26.23;;
31652;SDS011;18261;53.648;9.910;2022-11-27T05:41:08;65.82;;;25.80;;
31652;SDS011;18261;53.648;9.910;2022-11-27T05:43:34;60.70;;;24.92;;
31652;SDS011;18261;53.648;9.910;2022-11-27T05:46:07;59.50;;;25.25;;
31652;SDS011;18261;53.648;9.910;2022-11-27T05:48:33;57.40;;;24.35;;
31652;SDS011;18261;53.648;9.910;2022-11-27T05:50:59;60.42;;;25.17;;
31652;SDS011;18261;53.648;9.910;2022-11-27T05:53:25;58.53;;;25.77;;
31652;SDS011;18261;53.648;9.910;2022-11-27T05:55:51;66.72;;;27.65;;
31652;SDS011;18261;53.648;9.910;2022-11-27T05:58:17;62.50;;;26.67;;
31652;SDS011;18261;53.648;9.910;2022-11-27T06:00:43;67.57;;;28.17;;
31652;SDS011;18261;53.648;9.910;2022-11-27T06:03:09;68.47;;;28.35;;
31652;SDS011;18261;53.648;9.910;2022-11-27T06:05:38;72.05;;;30.13;;
31652;SDS011;18261;53.648;9.910;2022-11-27T06:08:04;59.45;;;30.23;;
31652;SDS011;18261;53.648;9.910;2022-11-27T06:10:30;62.20;;;29.98;;
31652;SDS011;18261;53.648;9.910;2022-11-27T06:12:56;71.97;;;31.10;;
31652;SDS011;18261;53.648;9.910;2022-11-27T06:15:22;72.95;;;32.92;;
31652;SDS011;18261;53.648;9.910;2022-11-27T06:17:48;71.32;;;32.85;;
31652;SDS011;18261;53.648;9.910;2022-11-27T06:20:14;66.88;;;31.48;;
31652;SDS011;18261;53.648;9.910;2022-11-27T06:22:40;65.32;;;30.90;;
31652;SDS011;18261;53.648;9.910;2022-11-27T06:25:07;69.97;;;32.60;;
31652;SDS011;18261;53.648;9.910;2022-11-27T06:27:33;69.18;;;33.63;;
31652;SDS011;18261;53.648;9.910;2022-11-27T06:29:59;64.68;;;30.45;;
31652;SDS011;18261;53.648;9.910;2022-11-27T06:32:25;67.35;;;30.88;;
31652;SDS011;18261;53.648;9.910;2022-11-27T06:34:51;70.63;;;31.42;;
31652;SDS011;18261;53.648;9.910;2022-11-27T06:37:17;67.65;;;31.83;;
31652;SDS011;18261;53.648;9.910;2022-11-27T06:39:43;68.93;;;31.30;;
31652;SDS011;18261;53.648;9.910;2022-11-27T06:42:09;64.80;;;29.75;;
31652;SDS011;18261;53.648;9.910;2022-11-27T06:44:35;64.20;;;30.33;;
31652;SDS011;18261;53.648;9.910;2022-11-27T06:47:01;59.20;;;28.98;;
31652;SDS011;18261;53.648;9.910;2022-11-27T06:49:26;66.03;;;29.77;;
31652;SDS011;18261;53.648;9.910;2022-11-27T06:51:52;62.22;;;28.90;;
31652;SDS011;18261;53.648;9.910;2022-11-27T06:54:18;62.65;;;29.73;;
31652;SDS011;18261;53.648;9.910;2022-11-27T06:56:44;65.32;;;28.35;;
31652;SDS011;18261;53.648;9.910;2022-11-27T06:59:10;54.53;;;27.50;;
31652;SDS011;18261;53.648;9.910;2022-11-27T07:01:40;55.38;;;27.73;;
31652;SDS011;18261;53.648;9.910;2022-11-27T07:04:07;58.92;;;27.42;;
31652;SDS011;18261;53.648;9.910;2022-11-27T07:06:34;56.70;;;27.75;;
31652;SDS011;18261;53.648;9.910;2022-11-27T07:09:00;64.32;;;27.60;;
31652;SDS011;18261;53.648;9.910;2022-11-27T07:11:27;57.53;;;27.65;;
31652;SDS011;18261;53.648;9.910;2022-11-27T07:13:55;52.47;;;26.15;;
31652;SDS011;18261;53.648;9.910;2022-11-27T07:16:21;56.83;;;27.52;;
31652;SDS011;18261;53.648;9.910;2022-11-27T07:18:48;58.50;;;28.63;;
31652;SDS011;18261;53.648;9.910;2022-11-27T07:21:14;61.03;;;28.95;;
31652;SDS011;18261;53.648;9.910;2022-11-27T07:23:41;63.38;;;27.55;;
31652;SDS011;18261;53.648;9.910;2022-11-27T07:26:08;53.72;;;26.45;;
31652;SDS011;18261;53.648;9.910;2022-11-27T07:28:34;61.90;;;28.02;;
31652;SDS011;18261;53.648;9.910;2022-11-27T07:31:00;60.42;;;27.73;;
31652;SDS011;18261;53.648;9.910;2022-11-27T07:33:26;57.28;;;27.90;;
31652;SDS011;18261;53.648;9.910;2022-11-27T07:35:59;63.97;;;31.08;;
31652;SDS011;18261;53.648;9.910;2022-11-27T07:38:25;66.22;;;31.10;;
31652;SDS011;18261;53.648;9.910;2022-11-27T07:40:51;59.33;;;27.40;;
31652;SDS011;18261;53.648;9.910;2022-11-27T07:43:17;52.72;;;27.23;;
31652;SDS011;18261;53.648;9.910;2022-11-27T07:45:43;55.13;;;27.00;;
31652;SDS011;18261;53.648;9.910;2022-11-27T07:48:09;55.65;;;26.98;;
31652;SDS011;18261;53.648;9.910;2022-11-27T07:50:35;58.78;;;26.50;;
31652;SDS011;18261;53.648;9.910;2022-11-27T07:53:01;58.47;;;26.50;;
31652;SDS011;18261;53.648;9.910;2022-11-27T07:55:27;57.47;;;28.27;;
31652;SDS011;18261;53.648;9.910;2022-11-27T07:57:53;61.63;;;28.10;;
31652;SDS011;18261;53.648;9.910;2022-11-27T08:00:19;52.88;;;26.05;;
31652;SDS011;18261;53.648;9.910;2022-11-27T08:02:45;53.50;;;26.42;;
31652;SDS011;18261;53.648;9.910;2022-11-27T08:05:11;59.25;;;27.55;;
31652;SDS011;18261;53.648;9.910;2022-11-27T08:07:37;52.55;;;26.65;;
31652;SDS011;18261;53.648;9.910;2022-11-27T08:10:03;56.42;;;27.33;;
31652;SDS011;18261;53.648;9.910;2022-11-27T08:12:29;57.08;;;28.05;;
31652;SDS011;18261;53.648;9.910;2022-11-27T08:14:55;52.40;;;26.83;;
31652;SDS011;18261;53.648;9.910;2022-11-27T08:17:21;54.33;;;26.52;;
31652;SDS011;18261;53.648;9.910;2022-11-27T08:19:47;52.78;;;25.98;;
31652;SDS011;18261;53.648;9.910;2022-11-27T08:22:14;56.25;;;27.02;;
31652;SDS011;18261;53.648;9.910;2022-11-27T08:24:40;55.30;;;25.95;;
31652;SDS011;18261;53.648;9.910;2022-11-27T08:27:09;52.40;;;26.48;;
31652;SDS011;18261;53.648;9.910;2022-11-27T08:29:36;56.15;;;25.42;;
31652;SDS011;18261;53.648;9.910;2022-11-27T08:32:02;53.22;;;25.88;;
31652;SDS011;18261;53.648;9.910;2022-11-27T08:34:28;53.92;;;25.90;;
31652;SDS011;18261;53.648;9.910;2022-11-27T08:36:54;47.58;;;23.05;;
31652;SDS011;18261;53.648;9.910;2022-11-27T08:39:20;48.17;;;23.90;;
31652;SDS011;18261;53.648;9.910;2022-11-27T08:41:46;50.08;;;22.98;;
31652;SDS011;18261;53.648;9.910;2022-11-27T08:44:12;48.60;;;23.08;;
31652;SDS011;18261;53.648;9.910;2022-11-27T08:46:38;56.22;;;24.45;;
31652;SDS011;18261;53.648;9.910;2022-11-27T08:49:04;53.20;;;23.40;;
31652;SDS011;18261;53.648;9.910;2022-11-27T08:51:30;48.55;;;22.10;;
31652;SDS011;18261;53.648;9.910;2022-11-27T08:53:56;45.78;;;22.40;;
31652;SDS011;18261;53.648;9.910;2022-11-27T08:56:23;46.05;;;22.35;;
31652;SDS011;18261;53.648;9.910;2022-11-27T08:58:49;52.75;;;22.23;;
31652;SDS011;18261;53.648;9.910;2022-11-27T09:01:16;41.45;;;21.08;;
31652;SDS011;18261;53.648;9.910;2022-11-27T09:03:43;49.20;;;21.67;;
31652;SDS011;18261;53.648;9.910;2022-11-27T09:06:10;47.28;;;21.02;;
31652;SDS011;18261;53.648;9.910;2022-11-27T09:08:37;49.97;;;21.20;;
31652;SDS011;18261;53.648;9.910;2022-11-27T09:11:03;39.00;;;19.27;;
31652;SDS011;18261;53.648;9.910;2022-11-27T09:13:29;41.33;;;18.23;;
31652;SDS011;18261;53.648;9.910;2022-11-27T09:15:55;35.00;;;17.92;;
31652;SDS011;18261;53.648;9.910;2022-11-27T09:18:22;39.35;;;17.83;;
31652;SDS011;18261;53.648;9.910;2022-11-27T09:20:55;35.47;;;17.23;;
31652;SDS011;18261;53.648;9.910;2022-11-27T09:23:21;37.03;;;17.00;;
31652;SDS011;18261;53.648;9.910;2022-11-27T09:25:47;34.72;;;15.60;;
31652;SDS011;18261;53.648;9.910;2022-11-27T09:28:13;38.58;;;15.95;;
31652;SDS011;18261;53.648;9.910;2022-11-27T09:30:39;33.55;;;15.68;;
31652;SDS011;18261;53.648;9.910;2022-11-27T09:33:05;39.33;;;16.92;;
31652;SDS011;18261;53.648;9.910;2022-11-27T09:35:31;35.67;;;16.48;;
31652;SDS011;18261;53.648;9.910;2022-11-27T09:37:57;34.53;;;16.15;;
31652;SDS011;18261;53.648;9.910;2022-11-27T09:40:23;35.10;;;16.95;;
31652;SDS011;18261;53.648;9.910;2022-11-27T09:42:52;37.15;;;17.80;;
31652;SDS011;18261;53.648;9.910;2022-11-27T09:45:20;39.63;;;17.20;;
31652;SDS011;18261;53.648;9.910;2022-11-27T09:47:48;35.20;;;16.35;;
31652;SDS011;18261;53.648;9.910;2022-11-27T09:50:22;40.70;;;16.52;;
31652;SDS011;18261;53.648;9.910;2022-11-27T09:52:56;33.45;;;16.10;;
31652;SDS011;18261;53.648;9.910;2022-11-27T09:55:24;37.00;;;16.77;;
31652;SDS011;18261;53.648;9.910;2022-11-27T09:57:52;32.60;;;16.13;;
31652;SDS011;18261;53.648;9.910;2022-11-27T10:00:20;34.78;;;15.98;;
31652;SDS011;18261;53.648;9.910;2022-11-27T10:02:46;36.88;;;16.55;;
31652;SDS011;18261;53.648;9.910;2022-11-27T10:05:13;37.60;;;16.58;;
31652;SDS011;18261;53.648;9.910;2022-11-27T10:07:48;40.95;;;16.70;;
31652;SDS011;18261;53.648;9.910;2022-11-27T10:12:50;40.40;;;16.02;;
31652;SDS011;18261;53.648;9.910;2022-11-27T10:15:31;32.58;;;16.35;;
31652;SDS011;18261;53.648;9.910;2022-11-27T10:18:12;31.15;;;15.50;;
31652;SDS011;18261;53.648;9.910;2022-11-27T10:25:41;39.22;;;15.32;;
31652;SDS011;18261;53.648;9.910;2022-11-27T10:28:17;37.95;;;16.70;;
31652;SDS011;18261;53.648;9.910;2022-11-27T10:33:16;37.45;;;16.05;;
31652;SDS011;18261;53.648;9.910;2022-11-27T10:35:45;30.10;;;14.93;;
31652;SDS011;18261;53.648;9.910;2022-11-27T10:38:19;32.92;;;14.90;;
31652;SDS011;18261;53.648;9.910;2022-11-27T10:40:54;45.50;;;16.20;;
31652;SDS011;18261;53.648;9.910;2022-11-27T10:43:23;33.97;;;14.68;;
31652;SDS011;18261;53.648;9.910;2022-11-27T10:48:34;34.80;;;14.93;;
31652;SDS011;18261;53.648;9.910;2022-11-27T10:51:00;30.73;;;15.60;;
31652;SDS011;18261;53.648;9.910;2022-11-27T10:53:30;35.58;;;14.52;;
31652;SDS011;18261;53.648;9.910;2022-11-27T11:01:05;30.75;;;14.90;;
31652;SDS011;18261;53.648;9.910;2022-11-27T11:03:32;29.27;;;13.57;;
31652;SDS011;18261;53.648;9.910;2022-11-27T11:06:01;33.90;;;13.52;;
31652;SDS011;18261;53.648;9.910;2022-11-27T11:08:29;33.28;;;14.45;;
31652;SDS011;18261;53.648;9.910;2022-11-27T11:10:57;36.85;;;14.07;;
31652;SDS011;18261;53.648;9.910;2022-11-27T11:13:27;37.35;;;14.95;;
31652;SDS011;18261;53.648;9.910;2022-11-27T11:15:55;31.73;;;14.85;;
31652;SDS011;18261;53.648;9.910;2022-11-27T11:18:28;31.23;;;14.02;;
31652;SDS011;18261;53.648;9.910;2022-11-27T11:20:56;32.42;;;14.35;;
31652;SDS011;18261;53.648;9.910;2022-11-27T11:23:24;38.10;;;14.75;;
31652;SDS011;18261;53.648;9.910;2022-11-27T11:25:51;30.33;;;15.00;;
31652;SDS011;18261;53.648;9.910;2022-11-27T11:28:18;34.63;;;15.02;;
31652;SDS011;18261;53.648;9.910;2022-11-27T11:30:51;30.17;;;13.38;;
31652;SDS011;18261;53.648;9.910;2022-11-27T11:33:17;31.92;;;13.55;;
31652;SDS011;18261;53.648;9.910;2022-11-27T11:35:49;29.48;;;12.80;;
31652;SDS011;18261;53.648;9.910;2022-11-27T11:38:16;33.53;;;13.73;;
31652;SDS011;18261;53.648;9.910;2022-11-27T11:40:43;38.00;;;16.20;;
31652;SDS011;18261;53.648;9.910;2022-11-27T11:43:28;31.80;;;13.93;;
31652;SDS011;18261;53.648;9.910;2022-11-27T11:46:01;26.33;;;11.38;;
31652;SDS011;18261;53.648;9.910;2022-11-27T11:48:27;30.42;;;14.57;;
31652;SDS011;18261;53.648;9.910;2022-11-27T11:50:55;36.50;;;14.80;;
31652;SDS011;18261;53.648;9.910;2022-11-27T11:53:37;39.90;;;15.50;;
31652;SDS011;18261;53.648;9.910;2022-11-27T11:59:02;32.05;;;14.10;;
31652;SDS011;18261;53.648;9.910;2022-11-27T12:01:36;36.63;;;15.32;;
31652;SDS011;18261;53.648;9.910;2022-11-27T12:06:35;33.10;;;14.65;;
31652;SDS011;18261;53.648;9.910;2022-11-27T12:14:09;29.23;;;14.48;;
31652;SDS011;18261;53.648;9.910;2022-11-27T12:16:56;32.45;;;14.52;;
31652;SDS011;18261;53.648;9.910;2022-11-27T12:22:17;39.92;;;15.55;;
31652;SDS011;18261;53.648;9.910;2022-11-27T12:25:08;33.20;;;15.60;;
31652;SDS011;18261;53.648;9.910;2022-11-27T12:30:13;43.65;;;16.83;;
31652;SDS011;18261;53.648;9.910;2022-11-27T12:35:32;30.77;;;14.40;;
31652;SDS011;18261;53.648;9.910;2022-11-27T12:50:49;32.67;;;12.98;;
31652;SDS011;18261;53.648;9.910;2022-11-27T12:55:43;33.55;;;13.18;;
31652;SDS011;18261;53.648;9.910;2022-11-27T12:58:21;30.90;;;12.40;;
31652;SDS011;18261;53.648;9.910;2022-11-27T13:00:48;28.58;;;12.15;;
31652;SDS011;18261;53.648;9.910;2022-11-27T13:05:58;30.10;;;12.55;;
31652;SDS011;18261;53.648;9.910;2022-11-27T13:11:04;29.83;;;12.40;;
31652;SDS011;18261;53.648;9.910;2022-11-27T13:13:33;26.27;;;12.35;;
31652;SDS011;18261;53.648;9.910;2022-11-27T13:16:02;27.77;;;12.05;;
31652;SDS011;18261;53.648;9.910;2022-11-27T13:18:31;26.50;;;11.73;;
31652;SDS011;18261;53.648;9.910;2022-11-27T13:20:59;26.35;;;11.35;;
31652;SDS011;18261;53.648;9.910;2022-11-27T13:23:29;25.35;;;10.95;;
31652;SDS011;18261;53.648;9.910;2022-11-27T13:25:55;32.47;;;12.48;;
31652;SDS011;18261;53.648;9.910;2022-11-27T13:30:48;27.35;;;12.10;;
31652;SDS011;18261;53.648;9.910;2022-11-27T13:33:22;24.70;;;11.25;;
31652;SDS011;18261;53.648;9.910;2022-11-27T13:35:51;27.45;;;10.70;;
31652;SDS011;18261;53.648;9.910;2022-11-27T13:38:22;24.55;;;10.80;;
31652;SDS011;18261;53.648;9.910;2022-11-27T13:40:50;24.90;;;10.07;;
31652;SDS011;18261;53.648;9.910;2022-11-27T13:46:02;27.85;;;10.85;;
31652;SDS011;18261;53.648;9.910;2022-11-27T13:48:34;24.05;;;10.43;;
31652;SDS011;18261;53.648;9.910;2022-11-27T13:51:01;32.40;;;11.70;;
31652;SDS011;18261;53.648;9.910;2022-11-27T13:53:29;27.23;;;10.98;;
31652;SDS011;18261;53.648;9.910;2022-11-27T13:55:55;23.80;;;10.85;;
31652;SDS011;18261;53.648;9.910;2022-11-27T13:58:34;28.42;;;11.07;;
31652;SDS011;18261;53.648;9.910;2022-11-27T14:01:11;33.17;;;12.30;;
31652;SDS011;18261;53.648;9.910;2022-11-27T14:03:37;20.40;;;10.25;;
31652;SDS011;18261;53.648;9.910;2022-11-27T14:06:13;29.83;;;10.57;;
31652;SDS011;18261;53.648;9.910;2022-11-27T14:08:47;25.52;;;10.85;;
31652;SDS011;18261;53.648;9.910;2022-11-27T14:11:13;39.53;;;11.82;;
31652;SDS011;18261;53.648;9.910;2022-11-27T14:16:17;28.95;;;11.68;;
31652;SDS011;18261;53.648;9.910;2022-11-27T14:18:48;23.10;;;10.75;;
31652;SDS011;18261;53.648;9.910;2022-11-27T14:21:20;26.23;;;10.32;;
31652;SDS011;18261;53.648;9.910;2022-11-27T14:23:49;28.83;;;9.88;;
31652;SDS011;18261;53.648;9.910;2022-11-27T14:26:20;27.77;;;11.27;;
31652;SDS011;18261;53.648;9.910;2022-11-27T14:28:53;23.58;;;10.30;;
31652;SDS011;18261;53.648;9.910;2022-11-27T14:33:51;27.80;;;10.88;;
31652;SDS011;18261;53.648;9.910;2022-11-27T14:36:24;32.15;;;12.02;;
31652;SDS011;18261;53.648;9.910;2022-11-27T14:38:52;36.70;;;12.88;;
31652;SDS011;18261;53.648;9.910;2022-11-27T14:41:19;27.83;;;11.30;;
31652;SDS011;18261;53.648;9.910;2022-11-27T14:43:45;23.05;;;10.45;;
31652;SDS011;18261;53.648;9.910;2022-11-27T14:46:13;22.98;;;11.70;;
31652;SDS011;18261;53.648;9.910;2022-11-27T14:48:42;32.38;;;11.63;;
31652;SDS011;18261;53.648;9.910;2022-11-27T14:51:18;26.52;;;10.80;;
31652;SDS011;18261;53.648;9.910;2022-11-27T14:53:46;29.17;;;11.18;;
31652;SDS011;18261;53.648;9.910;2022-11-27T14:56:12;24.70;;;11.65;;
31652;SDS011;18261;53.648;9.910;2022-11-27T14:58:39;26.65;;;11.68;;
31652;SDS011;18261;53.648;9.910;2022-11-27T15:01:22;27.23;;;11.68;;
31652;SDS011;18261;53.648;9.910;2022-11-27T15:03:55;35.78;;;11.63;;
31652;SDS011;18261;53.648;9.910;2022-11-27T15:06:21;25.58;;;11.23;;
31652;SDS011;18261;53.648;9.910;2022-11-27T15:08:47;30.00;;;13.18;;
31652;SDS011;18261;53.648;9.910;2022-11-27T15:11:14;30.92;;;13.27;;
31652;SDS011;18261;53.648;9.910;2022-11-27T15:13:40;28.73;;;11.68;;
31652;SDS011;18261;53.648;9.910;2022-11-27T15:16:12;29.10;;;13.00;;
31652;SDS011;18261;53.648;9.910;2022-11-27T15:18:39;26.85;;;12.00;;
31652;SDS011;18261;53.648;9.910;2022-11-27T15:21:09;25.48;;;11.70;;
31652;SDS011;18261;53.648;9.910;2022-11-27T15:23:36;27.33;;;11.73;;
31652;SDS011;18261;53.648;9.910;2022-11-27T15:31:20;26.08;;;11.07;;
31652;SDS011;18261;53.648;9.910;2022-11-27T15:36:26;28.88;;;11.55;;
31652;SDS011;18261;53.648;9.910;2022-11-27T15:38:52;28.88;;;11.02;;
31652;SDS011;18261;53.648;9.910;2022-11-27T15:41:28;30.33;;;11.52;;
31652;SDS011;18261;53.648;9.910;2022-11-27T15:43:57;32.22;;;11.73;;
31652;SDS011;18261;53.648;9.910;2022-11-27T15:46:30;25.27;;;11.80;;
31652;SDS011;18261;53.648;9.910;2022-11-27T15:48:58;27.80;;;12.05;;
31652;SDS011;18261;53.648;9.910;2022-11-27T15:51:24;32.70;;;13.57;;
31652;SDS011;18261;53.648;9.910;2022-11-27T15:53:50;31.38;;;12.88;;
31652;SDS011;18261;53.648;9.910;2022-11-27T15:56:16;25.90;;;11.98;;
31652;SDS011;18261;53.648;9.910;2022-11-27T15:58:43;29.23;;;12.52;;
31652;SDS011;18261;53.648;9.910;2022-11-27T16:01:09;29.58;;;12.90;;